Time;durP1;ratioP1;P1;durP2;ratioP2;P2;SDS_P1;SDS_P2;PMS_P1;PMS_P2;Temp;Humidity;BMP_temperature;BMP_pressure;BME280_temperature;BME280_humidity;BME280_pressure;Samples;Min_cycle;Max_cycle;Signal;HPM_P1;HPM_P2
2022/06/12 00:01:34;;;;;;;17.35;4.38;;;;;;;18.20;62.02;102180.78;5020537;28;20042;-43
2022/06/12 00:04:21;;;;;;;12.25;4.40;;;;;;;18.14;62.45;102179.19;5035244;28;20068;-46
2022/06/12 00:07:09;;;;;;;13.35;4.15;;;;;;;18.04;62.87;102184.78;5032176;28;20041;-49
2022/06/12 00:09:56;;;;;;;11.18;4.32;;;;;;;18.02;63.31;102184.22;5016225;28;20068;-47
2022/06/12 00:12:46;;;;;;;12.38;5.00;;;;;;;18.06;63.44;102179.75;5022917;28;20045;-47
2022/06/12 00:15:34;;;;;;;13.02;4.20;;;;;;;18.00;63.47;102173.47;5028428;28;20071;-45
2022/06/12 00:18:21;;;;;;;11.60;4.53;;;;;;;17.99;63.45;102182.00;5025247;28;20413;-48
2022/06/12 00:21:10;;;;;;;11.13;4.10;;;;;;;18.01;63.09;102177.84;5024898;28;20048;-49
2022/06/12 00:23:51;;;;;;;9.40;4.13;;;;;;;18.04;62.91;102179.25;5015143;28;20046;-48
2022/06/12 00:26:51;;;;;;;11.07;4.80;;;;;;;18.04;62.25;102180.06;5034272;28;20049;-47
2022/06/12 00:29:39;;;;;;;12.65;4.40;;;;;;;17.92;62.95;102170.47;5018575;28;20133;-45
2022/06/12 00:32:28;;;;;;;13.85;5.03;;;;;;;17.90;62.70;102169.97;5030679;28;20057;-46
2022/06/12 00:35:17;;;;;;;11.90;4.80;;;;;;;17.86;62.97;102172.44;5034337;28;20057;-49
2022/06/12 00:38:05;;;;;;;10.88;4.70;;;;;;;17.82;62.99;102172.19;5017945;28;20041;-47
2022/06/12 00:40:52;;;;;;;12.45;4.63;;;;;;;17.76;63.17;102173.28;5033554;28;20431;-48
2022/06/12 00:43:40;;;;;;;11.55;4.32;;;;;;;17.72;63.22;102171.38;5034227;28;20049;-48
2022/06/12 00:46:45;;;;;;;16.98;5.03;;;;;;;17.71;63.09;102176.06;5029259;28;20054;-50
2022/06/12 00:49:58;;;;;;;11.27;5.07;;;;;;;17.70;62.96;102177.16;5018356;28;20045;-50
2022/06/12 00:52:49;;;;;;;13.80;4.63;;;;;;;17.68;63.17;102173.91;5027565;28;20077;-45
2022/06/12 00:55:46;;;;;;;13.30;4.55;;;;;;;17.69;63.26;102181.03;5013308;28;20058;-45
2022/06/12 00:58:38;;;;;;;9.50;3.92;;;;;;;17.76;62.10;102175.22;5016083;28;20057;-47
2022/06/12 01:01:31;;;;;;;11.07;4.07;;;;;;;17.85;61.75;102179.06;5015182;28;20050;-49
2022/06/12 01:07:30;;;;;;;11.02;3.72;;;;;;;17.95;61.32;102175.44;5022574;28;20044;-43
2022/06/12 01:10:19;;;;;;;9.57;3.78;;;;;;;17.97;60.99;102175.97;5028660;28;20064;-45
2022/06/12 01:13:12;;;;;;;15.55;3.88;;;;;;;17.98;61.18;102175.69;5033187;28;20096;-49
2022/06/12 01:16:03;;;;;;;10.82;3.67;;;;;;;17.97;61.31;102170.47;5033365;28;20045;-46
2022/06/12 01:18:54;;;;;;;12.75;4.00;;;;;;;17.95;61.45;102167.97;5020151;28;20124;-47
2022/06/12 01:21:51;;;;;;;19.20;4.70;;;;;;;17.93;61.66;102174.91;5020143;28;20041;-50
2022/06/12 01:24:54;;;;;;;10.40;3.70;;;;;;;17.90;61.74;102179.03;5008974;28;20045;-50
2022/06/12 01:27:49;;;;;;;9.15;3.38;;;;;;;17.87;61.82;102174.94;5021097;28;20602;-48
2022/06/12 01:30:49;;;;;;;11.20;3.58;;;;;;;17.84;62.29;102175.47;5025758;28;20628;-47
2022/06/12 01:34:03;;;;;;;13.43;4.03;;;;;;;17.83;62.09;102173.03;5021739;28;20055;-48
2022/06/12 01:37:10;;;;;;;11.88;3.88;;;;;;;17.81;62.11;102173.28;5009380;28;20042;-42
2022/06/12 01:40:20;;;;;;;9.05;3.20;;;;;;;17.79;62.36;102169.97;5031333;28;20524;-45
2022/06/12 01:43:16;;;;;;;11.80;4.00;;;;;;;17.75;62.11;102163.38;5040816;28;20037;-45
2022/06/12 01:46:09;;;;;;;9.85;3.70;;;;;;;17.67;62.64;102167.53;5024883;28;20046;-47
2022/06/12 01:49:08;;;;;;;14.00;3.85;;;;;;;17.65;62.67;102163.41;5012732;28;20048;-47
2022/06/12 01:51:58;;;;;;;10.40;3.47;;;;;;;17.65;62.90;102163.41;5016070;28;20053;-48
2022/06/12 01:54:53;;;;;;;12.25;3.75;;;;;;;17.67;62.79;102161.19;5031579;28;20053;-47
2022/06/12 01:57:54;;;;;;;11.70;3.90;;;;;;;17.69;62.78;102153.47;5018832;28;20443;-47
2022/06/12 02:00:46;;;;;;;12.25;3.60;;;;;;;17.65;62.81;102153.25;5021452;28;20052;-45
2022/06/12 02:03:30;;;;;;;10.43;3.63;;;;;;;17.57;63.10;102151.06;5002098;28;20534;-46
2022/06/12 02:06:24;;;;;;;10.80;3.58;;;;;;;17.48;63.78;102157.44;5025228;28;20057;-46
2022/06/12 02:09:19;;;;;;;14.55;4.10;;;;;;;17.42;63.92;102154.72;5020181;28;20046;-46
2022/06/12 02:15:26;;;;;;;12.83;4.07;;;;;;;17.45;63.81;102158.81;5020409;28;20064;-47
2022/06/12 02:18:29;;;;;;;12.63;4.00;;;;;;;17.45;63.82;102162.41;5021349;28;20061;-44
2022/06/12 02:21:35;;;;;;;11.23;3.47;;;;;;;17.43;63.75;102172.06;5021627;28;20566;-46
2022/06/12 02:24:32;;;;;;;15.35;4.20;;;;;;;17.41;63.91;102164.09;5031512;28;20403;-47
2022/06/12 02:27:53;;;;;;;12.68;3.75;;;;;;;17.36;64.20;102175.09;5014039;28;20034;-44
2022/06/12 02:30:45;;;;;;;9.23;3.20;;;;;;;17.34;64.35;102166.31;5028455;28;20041;-50
2022/06/12 02:33:37;;;;;;;12.25;3.60;;;;;;;17.32;64.59;102165.78;5025284;28;20057;-46
2022/06/12 02:36:38;;;;;;;9.60;3.70;;;;;;;17.33;64.40;102156.38;5016804;28;20046;-46
2022/06/12 02:39:39;;;;;;;10.50;3.70;;;;;;;17.33;64.47;102156.38;5015287;28;20084;-44
2022/06/12 02:42:37;;;;;;;13.68;4.00;;;;;;;17.30;64.64;102151.44;5026441;28;20050;-47
2022/06/12 02:45:29;;;;;;;10.10;3.70;;;;;;;17.28;64.58;102155.59;5022864;28;20057;-48
2022/06/12 02:48:17;;;;;;;11.35;4.18;;;;;;;17.29;64.57;102144.28;5009113;28;20046;-49
2022/06/12 02:51:46;;;;;;;13.77;3.70;;;;;;;17.26;64.72;102150.34;5010525;28;20041;-47
2022/06/12 02:55:10;;;;;;;12.07;3.60;;;;;;;17.20;64.89;102151.50;5035744;28;20054;-56
2022/06/12 02:58:21;;;;;;;11.73;3.55;;;;;;;17.17;64.87;102141.00;5023938;28;20056;-47
2022/06/12 03:01:15;;;;;;;13.38;4.10;;;;;;;17.14;65.33;102138.81;5026425;28;20053;-49
2022/06/12 03:04:17;;;;;;;11.25;3.65;;;;;;;17.11;65.35;102139.41;5021638;28;20120;-46
2022/06/12 03:07:04;;;;;;;14.20;4.28;;;;;;;17.07;65.58;102136.38;5033615;28;20404;-50
2022/06/12 03:09:52;;;;;;;13.13;3.83;;;;;;;17.06;65.59;102147.69;5036163;28;20124;-52
2022/06/12 03:12:40;;;;;;;11.90;3.78;;;;;;;17.04;65.53;102140.50;5024123;28;20060;-51
2022/06/12 03:15:56;;;;;;;13.50;3.60;;;;;;;17.03;65.19;102147.13;5024597;28;20061;-48
2022/06/12 03:18:50;;;;;;;10.90;3.85;;;;;;;17.03;65.02;102141.63;5022420;28;20137;-52
2022/06/12 03:21:41;;;;;;;10.05;3.40;;;;;;;17.01;65.26;102148.50;5026008;28;20046;-48
2022/06/12 03:24:47;;;;;;;11.23;3.65;;;;;;;16.97;64.96;102150.16;5020615;28;20484;-47
2022/06/12 03:28:03;;;;;;;13.43;4.10;;;;;;;16.93;64.98;102152.66;5033928;28;20041;-47
2022/06/12 03:30:59;;;;;;;13.80;3.88;;;;;;;16.91;65.12;102154.88;5033587;28;20050;-54
2022/06/12 03:34:05;;;;;;;12.10;3.50;;;;;;;16.90;65.25;102147.69;5012346;28;20049;-52
2022/06/12 03:36:58;;;;;;;10.95;3.70;;;;;;;16.90;65.50;102158.69;5016594;28;20046;-53
2022/06/12 03:40:10;;;;;;;15.88;3.75;;;;;;;16.90;65.21;102149.63;5021252;28;20103;-53
2022/06/12 03:43:13;;;;;;;9.60;3.30;;;;;;;16.91;65.01;102154.00;5031467;28;20045;-46
2022/06/12 03:46:31;;;;;;;11.43;3.67;;;;;;;16.88;65.13;102160.91;5029506;28;20056;-47
2022/06/12 03:49:45;;;;;;;12.90;3.72;;;;;;;16.88;65.31;102155.41;5024603;28;20600;-47
2022/06/12 03:52:40;;;;;;;13.05;3.90;;;;;;;16.87;65.54;102159.28;5034951;28;20049;-45
2022/06/12 03:59:10;;;;;;;11.90;3.80;;;;;;;16.85;65.49;102150.47;5025495;28;20068;-45
2022/06/12 04:02:00;;;;;;;12.45;3.70;;;;;;;16.83;65.59;102149.91;5027287;28;20053;-48
2022/06/12 04:04:48;;;;;;;12.13;4.18;;;;;;;16.80;65.80;102158.72;5016231;28;20050;-47
2022/06/12 04:07:44;;;;;;;11.77;3.50;;;;;;;16.78;66.16;102145.22;5019759;28;20389;-50
2022/06/12 04:10:35;;;;;;;12.10;3.83;;;;;;;16.77;66.13;102157.31;5016146;28;20042;-48
2022/06/12 04:13:23;;;;;;;12.00;3.90;;;;;;;16.77;66.43;102153.75;5027454;28;20050;-47
2022/06/12 04:16:26;;;;;;;13.55;4.05;;;;;;;16.74;66.56;102157.88;5028200;28;20049;-48
2022/06/12 04:19:22;;;;;;;15.82;4.10;;;;;;;16.74;66.93;102159.78;5019170;28;20095;-48
2022/06/12 04:22:12;;;;;;;13.02;3.60;;;;;;;16.72;66.68;102162.84;5025071;28;20057;-47
2022/06/12 04:25:13;;;;;;;11.43;3.85;;;;;;;16.72;66.83;102159.28;5021064;28;20046;-47
2022/06/12 04:28:01;;;;;;;12.88;3.65;;;;;;;16.74;66.66;102165.28;5022947;28;20049;-47
2022/06/12 04:30:49;;;;;;;13.75;4.40;;;;;;;16.75;66.71;102158.69;5029979;28;20041;-47
2022/06/12 04:33:56;;;;;;;15.80;4.00;;;;;;;16.75;66.51;102167.78;5022789;28;20060;-47
2022/06/12 04:36:46;;;;;;;13.85;3.97;;;;;;;16.75;66.29;102156.78;5016076;28;20050;-47
2022/06/12 04:39:35;;;;;;;13.13;4.32;;;;;;;16.77;66.22;102159.25;5033866;28;20045;-50
2022/06/12 04:42:25;;;;;;;13.30;4.32;;;;;;;16.75;66.41;102169.72;5032309;28;20046;-50
2022/06/12 04:45:13;;;;;;;12.55;4.13;;;;;;;16.73;66.20;102171.91;5016968;28;20460;-51
2022/06/12 04:48:01;;;;;;;12.30;3.88;;;;;;;16.71;66.40;102166.69;5032864;28;20045;-51
2022/06/12 04:50:49;;;;;;;16.33;4.07;;;;;;;16.72;66.46;102178.53;5013842;28;20054;-52
2022/06/12 04:53:37;;;;;;;11.82;4.10;;;;;;;16.71;66.17;102168.59;5020791;28;20041;-51
2022/06/12 04:56:30;;;;;;;13.95;4.20;;;;;;;16.73;66.22;102167.22;5026927;28;20042;-48
2022/06/12 04:59:19;;;;;;;11.80;3.92;;;;;;;16.69;66.16;102173.56;5027089;28;20042;-50
2022/06/12 05:02:07;;;;;;;18.70;4.40;;;;;;;16.71;66.24;102165.84;5014362;28;20050;-51
2022/06/12 05:04:54;;;;;;;12.77;3.80;;;;;;;16.74;66.12;102173.56;5022689;28;20045;-48
2022/06/12 05:07:42;;;;;;;14.82;4.35;;;;;;;16.75;66.40;102161.47;5017841;28;20042;-48
2022/06/12 05:10:30;;;;;;;17.27;4.45;;;;;;;16.74;66.28;102165.28;5016608;28;20489;-45
2022/06/12 05:13:18;;;;;;;12.85;4.30;;;;;;;16.75;66.86;102155.94;5023841;28;20038;-50
2022/06/12 05:16:06;;;;;;;19.35;4.50;;;;;;;16.80;67.25;102164.22;5016701;28;20496;-47
2022/06/12 05:18:55;;;;;;;15.95;4.55;;;;;;;16.78;67.31;102166.41;5030298;28;20045;-50
2022/06/12 05:21:43;;;;;;;13.45;4.45;;;;;;;16.74;67.63;102166.16;5026787;28;20052;-49
2022/06/12 05:24:12;;;;;;;18.27;4.82;;;;;;;16.76;67.93;102163.09;5023368;28;20064;-48
2022/06/12 05:26:59;;;;;;;19.23;5.47;;;;;;;16.82;68.38;102167.53;5031968;28;20428;-49
2022/06/12 05:29:47;;;;;;;15.55;4.60;;;;;;;16.80;68.65;102172.50;5014610;28;20046;-49
2022/06/12 05:32:35;;;;;;;19.65;4.93;;;;;;;16.75;69.08;102173.28;5026055;28;20050;-47
2022/06/12 05:35:23;;;;;;;14.85;4.45;;;;;;;16.76;69.89;102171.34;5033207;28;20057;-49
2022/06/12 05:38:11;;;;;;;18.20;5.05;;;;;;;16.74;70.34;102177.16;5026134;28;20046;-51
2022/06/12 05:40:41;;;;;;;17.75;4.95;;;;;;;16.70;70.91;102175.22;5025815;28;20041;-50
2022/06/12 05:43:29;;;;;;;16.40;4.72;;;;;;;16.68;71.17;102175.50;5014752;28;20488;-49
2022/06/12 05:46:17;;;;;;;19.55;5.45;;;;;;;16.69;70.99;102166.16;5030757;28;20042;-50
2022/06/12 05:48:46;;;;;;;19.25;5.45;;;;;;;16.72;70.82;102173.03;5011659;28;20137;-48
2022/06/12 05:51:35;;;;;;;19.27;5.78;;;;;;;16.71;71.12;102176.88;5018924;28;20055;-48
2022/06/12 05:54:28;;;;;;;15.43;5.15;;;;;;;16.74;70.95;102176.31;5024334;28;20524;-48
2022/06/12 05:57:16;;;;;;;17.98;5.18;;;;;;;16.76;71.17;102182.34;5021917;28;20050;-48
2022/06/12 06:00:07;;;;;;;12.75;3.78;;;;;;;16.76;70.87;102185.13;5019471;28;20056;-51
2022/06/12 06:02:58;;;;;;;18.35;5.78;;;;;;;16.78;71.00;102180.16;5016099;28;20512;-47
2022/06/12 06:05:48;;;;;;;13.35;4.43;;;;;;;16.93;72.00;102182.94;5019242;28;20045;-48
2022/06/12 06:08:36;;;;;;;20.13;4.72;;;;;;;16.95;71.70;102180.72;5021592;28;20049;-45
2022/06/12 06:11:24;;;;;;;22.30;5.40;;;;;;;16.91;71.61;102185.16;5023215;28;20049;-49
2022/06/12 06:14:13;;;;;;;23.98;5.60;;;;;;;16.88;72.23;102185.69;5017431;28;20041;-47
2022/06/12 06:17:00;;;;;;;16.00;4.57;;;;;;;16.92;72.90;102181.28;5017272;28;20057;-48
2022/06/12 06:19:48;;;;;;;20.02;5.65;;;;;;;16.91;73.26;102190.66;5021646;28;20049;-45
2022/06/12 06:22:35;;;;;;;19.48;5.80;;;;;;;16.98;73.25;102193.09;5027530;28;20048;-46
2022/06/12 06:25:24;;;;;;;19.38;6.05;;;;;;;17.00;73.51;102191.75;5028106;28;20522;-45
2022/06/12 06:28:13;;;;;;;17.88;4.78;;;;;;;17.08;73.80;102184.84;5027289;28;20045;-48
2022/06/12 06:31:01;;;;;;;20.77;5.72;;;;;;;17.10;73.99;102190.06;5021296;28;20432;-52
2022/06/12 06:33:49;;;;;;;25.15;6.35;;;;;;;16.99;74.89;102195.59;5026760;28;20064;-50
2022/06/12 06:36:37;;;;;;;25.75;6.68;;;;;;;17.02;75.18;102197.78;5022974;28;20620;-49
2022/06/12 06:39:24;;;;;;;24.80;7.22;;;;;;;17.02;75.33;102195.03;5011838;28;20056;-53
2022/06/12 06:42:12;;;;;;;26.80;6.00;;;;;;;17.07;75.22;102196.94;5029567;28;20060;-49
2022/06/12 06:48:03;;;;;;;20.60;5.65;;;;;;;17.16;75.36;102202.72;5033697;28;20060;-50
2022/06/12 06:50:51;;;;;;;23.98;6.32;;;;;;;17.15;75.80;102210.16;5028805;28;20046;-50
2022/06/12 06:53:39;;;;;;;22.35;6.40;;;;;;;17.14;76.59;102207.69;5016329;28;20464;-50
2022/06/12 06:56:27;;;;;;;23.80;6.47;;;;;;;17.09;77.11;102205.75;5023356;28;20046;-49
2022/06/12 06:59:15;;;;;;;23.27;6.53;;;;;;;17.11;77.15;102208.25;5021915;28;20046;-49
2022/06/12 07:02:04;;;;;;;21.75;5.60;;;;;;;17.11;77.42;102208.25;5019304;28;20049;-51
2022/06/12 07:04:51;;;;;;;19.15;6.00;;;;;;;17.14;76.73;102197.47;5029059;28;20053;-50
2022/06/12 07:07:39;;;;;;;17.95;5.97;;;;;;;17.18;76.63;102203.28;5016599;28;20507;-49
2022/06/12 07:10:28;;;;;;;22.35;5.97;;;;;;;17.18;76.31;102204.09;5031292;28;20048;-48
2022/06/12 07:13:16;;;;;;;20.00;5.95;;;;;;;17.25;76.63;102203.81;5020528;28;20038;-49
2022/06/12 07:16:04;;;;;;;25.95;7.35;;;;;;;17.33;76.72;102203.22;5019174;28;20103;-50
2022/06/12 07:18:52;;;;;;;24.25;6.55;;;;;;;17.32;76.61;102201.59;5025413;28;20128;-54
2022/06/12 07:21:39;;;;;;;23.45;6.88;;;;;;;17.33;76.92;102203.22;5026204;28;20034;-53
2022/06/12 07:24:27;;;;;;;20.38;6.35;;;;;;;17.36;76.95;102205.41;5023800;28;20400;-49
2022/06/12 07:26:56;;;;;;;20.85;6.80;;;;;;;17.39;76.54;102204.88;5029140;28;20456;-52
2022/06/12 07:29:43;;;;;;;21.52;6.43;;;;;;;17.38;76.72;102208.72;5024020;28;20049;-49
2022/06/12 07:32:31;;;;;;;22.50;6.68;;;;;;;17.40;75.59;102220.28;5020289;28;20046;-51
2022/06/12 07:35:19;;;;;;;20.13;6.18;;;;;;;17.44;75.04;102212.31;5035315;28;20095;-49
2022/06/12 07:38:07;;;;;;;18.83;5.22;;;;;;;17.51;74.53;102206.47;5025165;28;20065;-48
2022/06/12 07:40:59;;;;;;;21.55;5.63;;;;;;;17.54;74.58;102217.78;5026906;28;20072;-49
2022/06/12 07:43:47;;;;;;;24.08;6.72;;;;;;;17.60;74.10;102215.81;5015029;28;20049;-48
2022/06/12 07:46:35;;;;;;;20.55;6.18;;;;;;;17.57;73.24;102222.72;5014825;28;20050;-50
2022/06/12 07:49:24;;;;;;;17.73;5.38;;;;;;;17.54;72.90;102212.25;5023675;28;20045;-48
2022/06/12 07:52:12;;;;;;;22.88;6.82;;;;;;;17.55;73.78;102211.13;5011893;28;20053;-49
2022/06/12 07:55:00;;;;;;;25.27;7.28;;;;;;;17.51;73.87;102217.50;5021237;28;20049;-50
2022/06/12 07:57:48;;;;;;;20.27;5.88;;;;;;;17.53;74.65;102215.28;5033933;28;20056;-49
2022/06/12 08:00:38;;;;;;;24.95;6.70;;;;;;;17.59;74.95;102219.69;5014200;28;20146;-49
2022/06/12 08:03:27;;;;;;;24.35;6.95;;;;;;;17.61;74.55;102223.81;5020021;28;20050;-50
2022/06/12 08:06:15;;;;;;;21.95;6.82;;;;;;;17.66;74.79;102217.47;5034317;28;20386;-56
2022/06/12 08:09:05;;;;;;;21.92;6.18;;;;;;;17.74;74.70;102222.38;5034537;28;20488;-50
2022/06/12 08:11:36;;;;;;;22.55;7.45;;;;;;;17.73;75.30;102211.66;5013629;28;20382;-50
2022/06/12 08:14:24;;;;;;;17.27;5.68;;;;;;;17.76;75.07;102214.66;5019054;28;20056;-50
2022/06/12 08:17:12;;;;;;;22.65;6.32;;;;;;;17.80;75.47;102215.78;5033213;28;20046;-52
2022/06/12 08:23:29;;;;;;;18.20;5.85;;;;;;;17.93;74.70;102211.56;5027642;28;20053;-51
2022/06/12 08:26:19;;;;;;;21.98;6.75;;;;;;;17.98;74.95;102216.22;5021806;28;20485;-50
2022/06/12 08:29:11;;;;;;;23.35;6.55;;;;;;;17.97;74.83;102206.31;5034463;28;20455;-48
2022/06/12 08:32:06;;;;;;;17.60;6.20;;;;;;;17.99;75.04;102206.84;5025593;28;20042;-49
2022/06/12 08:35:02;;;;;;;20.98;5.93;;;;;;;17.99;75.19;102206.84;5022700;28;20037;-50
2022/06/12 08:37:50;;;;;;;16.48;5.32;;;;;;;18.01;74.76;102210.94;5032131;28;20053;-50
2022/06/12 08:40:49;;;;;;;20.63;6.10;;;;;;;18.04;74.25;102204.06;5030931;28;20049;-51
2022/06/12 08:43:37;;;;;;;23.35;7.07;;;;;;;18.05;74.17;102201.00;5011041;28;20054;-49
2022/06/12 08:46:30;;;;;;;20.63;6.20;;;;;;;18.05;74.04;102205.72;5033375;28;20037;-49
2022/06/12 08:49:41;;;;;;;19.45;6.65;;;;;;;18.09;74.27;102201.28;5026259;28;20497;-50
2022/06/12 08:52:39;;;;;;;23.27;5.72;;;;;;;18.13;73.22;102201.53;5026757;28;20125;-49
2022/06/12 08:55:39;;;;;;;16.20;4.78;;;;;;;18.17;70.55;102195.16;5022620;28;20057;-48
2022/06/12 08:58:49;;;;;;;17.60;5.25;;;;;;;18.19;69.62;102183.84;5033671;28;20515;-49
2022/06/12 09:01:44;;;;;;;22.77;5.13;;;;;;;18.21;68.69;102187.97;5032448;28;20052;-49
2022/06/12 09:04:32;;;;;;;14.43;4.55;;;;;;;18.22;67.96;102188.78;5024375;28;20041;-52
2022/06/12 09:07:47;;;;;;;13.82;3.90;;;;;;;18.21;67.80;102187.13;5032782;28;20410;-51
2022/06/12 09:10:52;;;;;;;13.73;4.72;;;;;;;18.22;67.00;102189.59;5022026;28;20041;-50
2022/06/12 09:13:57;;;;;;;20.08;5.00;;;;;;;18.23;66.04;102195.94;5033162;28;20046;-47
2022/06/12 09:16:51;;;;;;;;;;;;;;;18.26;65.54;102193.44;5033731;28;20060;-48
2022/06/12 09:20:03;;;;;;;15.80;5.30;;;;;;;18.35;66.81;102192.81;5033246;28;19921;-51
2022/06/12 09:22:56;;;;;;;17.55;5.38;;;;;;;18.39;67.23;102185.63;5025432;28;20050;-48
2022/06/12 09:25:57;;;;;;;18.45;5.10;;;;;;;18.45;67.43;102190.00;5025900;28;20046;-51
2022/06/12 09:28:52;;;;;;;17.38;4.65;;;;;;;18.52;66.67;102182.22;5009974;28;20042;-50
2022/06/12 09:31:51;;;;;;;16.67;5.00;;;;;;;18.59;66.48;102187.38;5033071;28;20045;-50
2022/06/12 09:34:59;;;;;;;19.80;5.10;;;;;;;18.64;65.01;102185.44;5032157;28;20046;-49
2022/06/12 09:38:21;;;;;;;17.00;5.03;;;;;;;18.65;64.32;102177.97;5030201;28;20045;-49
2022/06/12 09:41:18;;;;;;;17.15;4.80;;;;;;;18.66;66.20;102183.16;5019151;28;20056;-47
2022/06/12 09:44:36;;;;;;;15.98;4.90;;;;;;;18.73;63.74;102180.09;5026391;28;20531;-49
2022/06/12 09:47:46;;;;;;;19.13;4.80;;;;;;;18.76;64.11;102182.31;5012553;28;20129;-51
2022/06/12 09:50:46;;;;;;;17.65;4.78;;;;;;;18.78;64.16;102173.72;5024986;28;20037;-50
2022/06/12 09:53:27;;;;;;;17.55;4.80;;;;;;;18.81;64.43;102179.50;5011715;28;20420;-48
2022/06/12 09:56:24;;;;;;;16.92;4.85;;;;;;;18.86;64.81;102175.88;5026239;28;20397;-50
2022/06/12 09:59:26;;;;;;;17.08;4.75;;;;;;;18.88;63.43;102179.13;5025609;28;20045;-49
2022/06/12 10:02:38;;;;;;;12.65;4.53;;;;;;;18.91;63.14;102184.09;5025500;28;20045;-48
2022/06/12 10:05:42;;;;;;;15.13;4.07;;;;;;;18.94;60.98;102178.00;5027926;28;20042;-48
2022/06/12 10:08:41;;;;;;;15.95;3.88;;;;;;;18.96;60.57;102181.28;5031485;28;20489;-49
2022/06/12 10:11:39;;;;;;;13.40;4.13;;;;;;;19.01;60.97;102180.41;5032438;28;20064;-53
2022/06/12 10:14:33;;;;;;;12.98;3.40;;;;;;;19.05;59.15;102176.78;5004914;28;20505;-48
2022/06/12 10:17:41;;;;;;;11.48;3.50;;;;;;;19.15;59.70;102171.13;5030775;28;20065;-51
2022/06/12 10:20:32;;;;;;;15.90;4.38;;;;;;;19.23;59.08;102177.13;5012810;28;20054;-46
2022/06/12 10:23:21;;;;;;;14.38;3.90;;;;;;;19.26;59.64;102179.31;5011007;28;20058;-49
2022/06/12 10:26:15;;;;;;;15.20;4.10;;;;;;;19.21;58.99;102177.41;5017302;28;20390;-51
2022/06/12 10:29:06;;;;;;;16.60;4.35;;;;;;;19.16;59.34;102169.19;5019989;28;20054;-49
2022/06/12 10:32:02;;;;;;;13.57;4.38;;;;;;;19.21;59.85;102171.06;5032130;28;20053;-50
2022/06/12 10:34:51;;;;;;;19.30;4.18;;;;;;;19.29;58.18;102170.41;5012599;28;20485;-48
2022/06/12 10:37:33;;;;;;;12.88;3.85;;;;;;;19.34;57.89;102165.66;5026177;28;20453;-49
2022/06/12 10:40:24;;;;;;;14.18;4.20;;;;;;;19.42;58.37;102166.97;5016538;28;20042;-48
2022/06/12 10:43:41;;;;;;;19.42;4.85;;;;;;;19.48;58.37;102163.03;5016392;28;20051;-51
2022/06/12 10:46:32;;;;;;;16.25;3.83;;;;;;;19.57;58.37;102163.16;5017538;28;20041;-50
2022/06/12 10:49:23;;;;;;;15.45;3.60;;;;;;;19.49;56.77;102161.91;5030534;28;20041;-50
2022/06/12 10:52:20;;;;;;;16.98;4.63;;;;;;;19.41;57.72;102165.31;5025271;28;20409;-50
2022/06/12 10:55:12;;;;;;;12.98;3.75;;;;;;;19.39;58.17;102169.50;5017119;28;20046;-48
2022/06/12 10:58:24;;;;;;;13.18;3.75;;;;;;;19.45;57.97;102158.06;5009701;28;20064;-48
2022/06/12 11:01:50;;;;;;;16.00;4.32;;;;;;;19.52;57.72;102153.00;5028857;28;20037;-48
2022/06/12 11:05:21;;;;;;;13.38;4.22;;;;;;;19.62;57.16;102157.56;5021059;28;20515;-50
2022/06/12 11:08:33;;;;;;;12.38;4.05;;;;;;;19.68;57.60;102155.63;5014559;28;20392;-52
2022/06/12 11:11:50;;;;;;;17.52;4.32;;;;;;;19.68;56.66;102148.13;5017876;28;20096;-46
2022/06/12 11:15:07;;;;;;;13.45;4.15;;;;;;;19.67;56.75;102151.16;5030798;28;20499;-48
2022/06/12 11:17:59;;;;;;;17.90;4.20;;;;;;;19.69;57.82;102148.94;5021485;28;20073;-51
2022/06/12 11:21:03;;;;;;;15.50;4.07;;;;;;;19.74;57.73;102157.16;5032548;28;20507;-49
2022/06/12 11:24:04;;;;;;;13.20;3.80;;;;;;;19.70;56.31;102139.53;5024338;28;20042;-51
2022/06/12 11:27:10;;;;;;;16.70;4.32;;;;;;;19.69;56.82;102147.00;5032557;28;20042;-49
2022/06/12 11:30:13;;;;;;;14.32;4.53;;;;;;;19.83;56.42;102138.78;5017420;28;20057;-53
2022/06/12 11:33:45;;;;;;;10.40;3.58;;;;;;;19.90;56.38;102130.94;5020072;28;20042;-48
2022/06/12 11:36:55;;;;;;;14.00;3.88;;;;;;;19.87;55.85;102142.63;5023677;28;20054;-48
2022/06/12 11:39:54;;;;;;;15.52;4.38;;;;;;;19.79;57.21;102137.75;5024601;28;20498;-48
2022/06/12 11:43:08;;;;;;;11.43;3.65;;;;;;;19.82;57.96;102134.41;5030272;28;20041;-52
2022/06/12 11:46:39;;;;;;;13.35;4.20;;;;;;;19.82;58.40;102134.41;5028747;28;20049;-49
2022/06/12 11:49:29;;;;;;;14.63;4.53;;;;;;;19.81;57.91;102134.69;5020841;28;20053;-49
2022/06/12 11:52:38;;;;;;;15.40;4.05;;;;;;;19.81;57.36;102127.19;5022309;28;20048;-50
2022/06/12 11:55:50;;;;;;;14.90;3.75;;;;;;;19.83;57.81;102126.91;5022870;28;20045;-49
2022/06/12 11:59:02;;;;;;;12.55;3.83;;;;;;;19.81;57.43;102127.19;5025915;28;20037;-51
2022/06/12 12:02:08;;;;;;;16.27;3.88;;;;;;;19.79;58.31;102127.53;5026232;28;20050;-50
2022/06/12 12:05:33;;;;;;;16.40;4.28;;;;;;;19.85;58.10;102113.63;5018284;28;20042;-58
2022/06/12 12:08:30;;;;;;;15.25;4.10;;;;;;;19.97;58.04;102106.50;5026995;28;20493;-52
2022/06/12 12:11:23;;;;;;;16.45;4.15;;;;;;;20.07;57.74;102111.03;5031327;28;20043;-53
2022/06/12 12:14:27;;;;;;;14.90;4.03;;;;;;;20.14;56.33;102114.25;5019980;28;20052;-54
2022/06/12 12:17:22;;;;;;;13.23;4.15;;;;;;;20.13;54.87;102114.53;5017886;28;20046;-49
2022/06/12 12:20:25;;;;;;;14.10;3.85;;;;;;;20.12;55.72;102104.59;5034366;28;20048;-47
2022/06/12 12:23:26;;;;;;;12.50;3.53;;;;;;;20.16;57.23;102108.41;5023972;28;20073;-48
2022/06/12 12:26:33;;;;;;;16.48;3.90;;;;;;;20.13;55.56;102104.31;5005185;28;20048;-52
2022/06/12 12:29:25;;;;;;;14.13;3.70;;;;;;;20.05;56.13;102106.94;5032067;28;20128;-52
2022/06/12 12:31:59;;;;;;;12.25;3.58;;;;;;;20.02;56.25;102108.34;5024519;28;20046;-54
2022/06/12 12:34:51;;;;;;;14.73;4.35;;;;;;;20.00;56.93;102119.72;5027028;28;20076;-49
2022/06/12 12:41:44;;;;;;;11.52;3.33;;;;;;;20.17;55.55;102116.41;5033258;28;20053;-49
2022/06/12 12:44:38;;;;;;;13.85;3.72;;;;;;;20.22;55.98;102098.91;5021625;28;20071;-49
2022/06/12 12:47:28;;;;;;;11.60;3.65;;;;;;;20.27;54.89;102101.56;5014192;28;20049;-51
2022/06/12 12:50:18;;;;;;;16.48;3.65;;;;;;;20.31;54.63;102097.09;5004685;28;20393;-49
2022/06/12 12:53:06;;;;;;;11.55;3.40;;;;;;;20.36;53.86;102097.00;5017948;28;20042;-48
2022/06/12 12:56:30;;;;;;;15.73;4.40;;;;;;;20.46;53.64;102092.41;5028821;28;20038;-48
2022/06/12 12:59:20;;;;;;;12.48;3.33;;;;;;;20.48;53.29;102093.75;5029359;28;20431;-48
2022/06/12 13:02:32;;;;;;;12.40;3.47;;;;;;;20.48;53.09;102093.75;5024125;28;20049;-49
2022/06/12 13:05:22;;;;;;;13.65;3.70;;;;;;;20.46;53.27;102095.19;5022356;28;20502;-48
2022/06/12 13:08:13;;;;;;;14.02;3.75;;;;;;;20.45;52.88;102085.25;5028475;28;20048;-48
2022/06/12 13:11:10;;;;;;;11.38;3.42;;;;;;;20.43;52.28;102086.34;5020667;28;20045;-50
2022/06/12 13:14:20;;;;;;;12.52;3.70;;;;;;;20.54;53.27;102077.84;5025768;28;20161;-54
2022/06/12 13:17:27;;;;;;;12.20;3.35;;;;;;;20.51;52.72;102072.94;5025659;28;20057;-48
2022/06/12 13:20:30;;;;;;;10.23;2.92;;;;;;;20.42;52.68;102076.41;5030893;28;20057;-50
2022/06/12 13:23:35;;;;;;;9.85;2.90;;;;;;;20.45;52.97;102080.53;5029871;28;20042;-49
2022/06/12 13:26:24;;;;;;;9.27;3.17;;;;;;;20.52;52.76;102082.91;5014199;28;20053;-56
2022/06/12 13:29:16;;;;;;;15.15;4.40;;;;;;;20.53;52.35;102079.00;5020716;28;20504;-53
2022/06/12 13:32:20;;;;;;;20.70;3.80;;;;;;;20.45;51.89;102077.75;5027668;28;20084;-52
2022/06/12 13:35:42;;;;;;;11.55;3.40;;;;;;;20.51;51.58;102070.16;4674665;28;10001499;-53
2022/06/12 13:38:47;;;;;;;9.85;3.40;;;;;;;20.59;52.79;102077.81;5009981;28;20056;-52
2022/06/12 13:41:39;;;;;;;11.70;3.42;;;;;;;20.61;52.57;102078.31;5017348;28;20052;-49
2022/06/12 13:44:29;;;;;;;12.13;3.30;;;;;;;20.61;52.04;102064.47;5015855;28;20381;-50
2022/06/12 13:47:20;;;;;;;11.10;3.50;;;;;;;20.58;52.54;102067.84;5027430;28;20050;-49